LIRILIPR

Guest
Details From LIRI - Pontecagnano
To LIPR - Rimini Mil
Flight Number -
Tags generated
Created
Modified
Stats Distance 235 nm / 435 km
Max Altitude 28,000 ft / 8,534 m
Waypoints 5
Social Downloads 1
Likes 0
Share VATSIM

Download

Looking for another format? Having issues loading an existing format? Contact us
Advertisement - Login to hide

Notes

Basic altitude profile: - Ascent Rate: 2500ft/min - Ascent Speed: 250kts - Cruise Altitude: 35000ft - Cruise Speed: 420kts - Descent Rate: 1500ft/min - Descent Speed: 250kts Options: - Use NATs: yes - Use PACOTS: yes - Use low airways: yes - Use high airways: no

Route

LIRI EMILY L982 ERDUX LIPR

ID Type Via Altitude Latitude Longitude Leg Dist Tot Dist Heading (true) Name
O LIRI APT - 0 ft / 0 m 40.61869˚ 14.91054˚ - 0 nm - Pontecagnano
EMILY FIX - 28,000 ft / 8,534 m 42.16806˚ 14.13361˚ 99 nm 99 nm 340° / 339° -
PES VOR L982 (AWY-LO) 19,500 ft / 5,944 m 42.43611˚ 14.18444˚ 16 nm 115 nm 8° / 8° PESCARA VOR-DME
ERDUX FIX L982 (AWY-LO) 14,000 ft / 4,267 m 43.25083˚ 13.68222˚ 53 nm 169 nm 336° / 336° -
O LIPR APT - 0 ft / 0 m 44.02029˚ 12.61175˚ 65 nm 234 nm 315° / 314° Rimini Mil

Altitude Profile

Advertisement - Login to hide

Weather


0- 5 10 15 20 25 30 35+ Temperature / ° C

Clouds and Precipitation
Forecast for 2017-12-13 18:00 UTC. Updated 2 hours ago

Ground ~20,000 ft ~40,000 ft Winds

LIRI

Details ICAO LIRI (QSR)
Name Pontecagnano
Region Italy
Timezone Europe/Rome (UTC+1.0)
Stats Elevation 131 ft / 40 m (AMSL)
Location 40.618691° 14.910538°
Runways 1
Magnetic Variation 3.396° E

METAR

LIRI 131550Z 27004KT 9000 SCT020 BKN035 BKN050 12/09 Q1019

Decode

TAF

Not found

Departure Runways

ID Width Length Bearing (true) Bearing (mag) Surface Threshold Offset Overrun Length
05 148 ft / 45 m 5,259 ft / 1,603 m 52.06° 48.66° Asphalt 0 ft / 0 m 0 ft / 0 m
23 148 ft / 45 m 5,259 ft / 1,603 m 232.07° 228.67° Asphalt 512 ft / 156 m 0 ft / 0 m

LIPR

Details ICAO LIPR (RMI)
Name Rimini Mil
Region Italy
Timezone Europe/Rome (UTC+1.0)
Stats Elevation 41 ft / 12 m (AMSL)
Location 44.020286° 12.611746°
Runways 1
Magnetic Variation 3.167° E

METAR

LIPR 131645Z 17002KT CAVOK 07/06 Q1016 RMK SKC VIS MIN 9999 WIND THR31 00000KT BLU

Decode

TAF

Not found

Destination Runways

ID Width Length Bearing (true) Bearing (mag) Surface Threshold Offset Overrun Length
13 148 ft / 45 m 9,818 ft / 2,992 m 127.79° 124.62° Asphalt 1,030 ft / 314 m 846 ft / 258 m
31 148 ft / 45 m 9,818 ft / 2,992 m 307.81° 304.64° Asphalt 1,006 ft / 307 m 376 ft / 115 m

Approach Navaids

Runway Type Ident Frequency Range Bearing (true) Bearing (mag) Slope Elevation
31 Localiser MIR 109.30 MHz 18 nm / 33 km 307.77° 304.60° - 41 ft / 12 m (AMSL)
31 Glidescope MIR 109.30 MHz 10 nm / 19 km 307.80° 304.63° 3.00° 41 ft / 12 m (AMSL)